Federal Matane — V2CF1 — position and weather

sailwx.info

Track history (hours):
 
Tides and Currents Weather Stations Pressure Air Temp Water Temp Dewpoint Dewpoint Depression Visibility Wind Speed Wind Dir Waves Ship Positions

Federal Matane

Last reported at 2018-Aug-06 07:05 UTC. Time now 2018-Aug-14 23:42 UTC.
Position N 45°18' W 073°56'.
Warning: this ship's position is 8 days out of date.

Length 185.1 m; beam 23.5 m; draft 9.8 m.

Type: Ship. MMSI: 304604000.

Date/timePositionNaut miles runAvg speedWind from/ knotsBaromVisibWave heightAir tempDewpointWater temp
2018-Aug-06 07:05N 45°18' W 073°56'1 1.3
2018-Aug-06 06:26N 45°19' W 073°55'0 0.9
2018-Aug-06 05:59N 45°19' W 073°55'2 4.2
2018-Aug-06 05:24N 45°21' W 073°53'410.1
2018-Aug-06 05:00N 45°23' W 073°48'4 8.8
2018-Aug-06 04:30N 45°25' W 073°42'6 5.9
2018-Aug-06 03:33N 45°24' W 073°34'0 1.9
2018-Aug-06 03:23N 45°24' W 073°34'0 0.4
2018-Aug-06 03:00N 45°24' W 073°34'6 3.2
2018-Aug-06 01:15N 45°30' W 073°31'18 6.7
2018-Aug-05 22:29N 45°47' W 073°21'5 9.9
2018-Aug-05 22:00N 45°50' W 073°17'5 9.6
2018-Aug-05 21:31N 45°54' W 073°13'8 9.8
2018-Aug-05 20:40N 46°02' W 073°10'1 8.2
2018-Aug-05 20:30N 46°03' W 073°08'1 1.3
2018-Aug-05 19:59N 46°03' W 073°07'0 0.0
2018-Aug-05 19:29N 46°03' W 073°07'0 0.0
2018-Aug-05 18:59N 46°03' W 073°07'0 0.0
2018-Aug-05 18:29N 46°03' W 073°07'0 0.0
2018-Aug-05 17:53N 46°03' W 073°07'0 0.0
2018-Aug-05 17:29N 46°03' W 073°07'0 0.0
2018-Aug-05 16:59N 46°03' W 073°07'0 0.0
2018-Aug-05 16:29N 46°03' W 073°07'0 0.0
2018-Aug-05 15:59N 46°03' W 073°07'0 0.0
2018-Aug-05 15:29N 46°03' W 073°07'0 0.0
2018-Aug-05 14:56N 46°03' W 073°07'0 0.0
2018-Aug-05 13:59N 46°03' W 073°07'0 0.0
2018-Aug-05 13:29N 46°03' W 073°07'0 0.0
2018-Aug-05 12:59N 46°03' W 073°07'0 0.0
2018-Aug-05 12:29N 46°03' W 073°07'0 0.0
2018-Aug-05 11:59N 46°03' W 073°07'0 0.0
2018-Aug-05 11:29N 46°03' W 073°07'0 0.0
2018-Aug-05 10:59N 46°03' W 073°07'0 0.0
2018-Aug-05 10:29N 46°03' W 073°07'0 0.0
2018-Aug-05 09:59N 46°03' W 073°07'0 0.0
2018-Aug-05 09:30N 46°03' W 073°07'0 0.0
2018-Aug-05 09:00N 46°03' W 073°07'0 0.0
2018-Aug-05 08:30N 46°03' W 073°07'0 0.0
2018-Aug-05 08:00N 46°03' W 073°07'0 0.0
2018-Aug-05 07:30N 46°03' W 073°07'0 0.0
2018-Aug-05 06:56N 46°03' W 073°07'0 0.0
2018-Aug-05 06:30N 46°03' W 073°07'0 0.0
2018-Aug-05 06:00N 46°03' W 073°07'0 0.0
2018-Aug-05 05:30N 46°03' W 073°07'0 0.0
2018-Aug-05 05:00N 46°03' W 073°07'0 0.0
2018-Aug-05 04:30N 46°03' W 073°07'0 0.0
2018-Aug-05 04:00N 46°03' W 073°07'0 0.0
2018-Aug-05 03:30N 46°03' W 073°07'0 0.0
2018-Aug-05 03:00N 46°03' W 073°07'0 0.0
2018-Aug-05 02:30N 46°03' W 073°07'0 0.0
2018-Aug-05 02:00N 46°03' W 073°07'0 0.0
2018-Aug-05 01:30N 46°03' W 073°07'1 1.3
2018-Aug-05 00:59N 46°03' W 073°07'91 9.4
2018-Aug-04 15:15N 46°49' W 071°12'  
2018-Jul-28 15:53N 39°37' W 029°28'613.0
2018-Jul-28 15:27N 39°35' W 029°21'612.5
2018-Jul-28 15:00N 39°33' W 029°14'612.2
2018-Jul-28 14:30N 39°31' W 029°06'612.2
2018-Jul-28 14:00N 39°30' W 028°58'612.2
2018-Jul-28 13:31N 39°28' W 028°51'612.1
2018-Jul-28 13:00N 39°26' W 028°43'611.8
2018-Jul-28 12:30N 39°25' W 028°36'611.7
2018-Jul-28 12:00N 39°23' W 028°29'611.9
2018-Jul-28 11:30N 39°21' W 028°21'611.9
2018-Jul-28 11:00N 39°20' W 028°14'612.1
2018-Jul-28 10:30N 39°18' W 028°06'612.0
2018-Jul-28 10:00N 39°16' W 027°59'611.9
2018-Jul-28 09:30N 39°14' W 027°52'612.5
2018-Jul-28 09:01N 39°13' W 027°44'612.6
2018-Jul-28 08:30N 39°11' W 027°36'612.2
2018-Jul-28 08:00N 39°09' W 027°29'912.4
2018-Jul-28 07:17N 39°06' W 027°18'6812.3
2018-Jul-28 01:45N 38°35' W 026°00'311.9
2018-Jul-28 01:29N 38°33' W 025°57'611.4
2018-Jul-28 01:00N 38°30' W 025°51'611.8
2018-Jul-28 00:30N 38°27' W 025°45'612.0
2018-Jul-28 00:00N 38°24' W 025°38'612.2
2018-Jul-27 23:31N 38°21' W 025°31'612.5
2018-Jul-27 23:00N 38°18' W 025°24'612.5
2018-Jul-27 22:30N 38°14' W 025°18'612.7
2018-Jul-27 22:00N 38°11' W 025°11'712.6
2018-Jul-27 21:29N 38°08' W 025°04'612.6
2018-Jul-27 21:00N 38°04' W 024°57'612.7
2018-Jul-27 20:30N 38°01' W 024°50'612.6
2018-Jul-27 20:00N 37°58' W 024°43'612.7
2018-Jul-27 19:30N 37°55' W 024°36'612.5
2018-Jul-27 19:00N 37°52' W 024°29'612.8
2018-Jul-27 18:30N 37°51' W 024°21'  
Track history (hours):
 
Tides and Currents Weather Stations Pressure Air Temp Water Temp Dewpoint Dewpoint Depression Visibility Wind Speed Wind Dir Waves Ship Positions

Federal Matane

Last reported at 2018-Aug-06 07:05 UTC. Time now 2018-Aug-14 23:42 UTC.
Position N 45°18' W 073°56'.
Warning: this ship's position is 8 days out of date.

Length 185.1 m; beam 23.5 m; draft 9.8 m.

Type: Ship. MMSI: 304604000.

Date/timePositionNaut miles runAvg speedWind from/ knotsBaromVisibWave heightAir tempDewpointWater temp
2018-Aug-06 07:05N 45°18' W 073°56'1 1.3
2018-Aug-06 06:26N 45°19' W 073°55'0 0.9
2018-Aug-06 05:59N 45°19' W 073°55'2 4.2
2018-Aug-06 05:24N 45°21' W 073°53'410.1
2018-Aug-06 05:00N 45°23' W 073°48'4 8.8
2018-Aug-06 04:30N 45°25' W 073°42'6 5.9
2018-Aug-06 03:33N 45°24' W 073°34'0 1.9
2018-Aug-06 03:23N 45°24' W 073°34'0 0.4
2018-Aug-06 03:00N 45°24' W 073°34'6 3.2
2018-Aug-06 01:15N 45°30' W 073°31'18 6.7
2018-Aug-05 22:29N 45°47' W 073°21'5 9.9
2018-Aug-05 22:00N 45°50' W 073°17'5 9.6
2018-Aug-05 21:31N 45°54' W 073°13'8 9.8
2018-Aug-05 20:40N 46°02' W 073°10'1 8.2
2018-Aug-05 20:30N 46°03' W 073°08'1 1.3
2018-Aug-05 19:59N 46°03' W 073°07'0 0.0
2018-Aug-05 19:29N 46°03' W 073°07'0 0.0
2018-Aug-05 18:59N 46°03' W 073°07'0 0.0
2018-Aug-05 18:29N 46°03' W 073°07'0 0.0
2018-Aug-05 17:53N 46°03' W 073°07'0 0.0
2018-Aug-05 17:29N 46°03' W 073°07'0 0.0
2018-Aug-05 16:59N 46°03' W 073°07'0 0.0
2018-Aug-05 16:29N 46°03' W 073°07'0 0.0
2018-Aug-05 15:59N 46°03' W 073°07'0 0.0
2018-Aug-05 15:29N 46°03' W 073°07'0 0.0
2018-Aug-05 14:56N 46°03' W 073°07'0 0.0
2018-Aug-05 13:59N 46°03' W 073°07'0 0.0
2018-Aug-05 13:29N 46°03' W 073°07'0 0.0
2018-Aug-05 12:59N 46°03' W 073°07'0 0.0
2018-Aug-05 12:29N 46°03' W 073°07'0 0.0
2018-Aug-05 11:59N 46°03' W 073°07'0 0.0
2018-Aug-05 11:29N 46°03' W 073°07'0 0.0
2018-Aug-05 10:59N 46°03' W 073°07'0 0.0
2018-Aug-05 10:29N 46°03' W 073°07'0 0.0
2018-Aug-05 09:59N 46°03' W 073°07'0 0.0
2018-Aug-05 09:30N 46°03' W 073°07'0 0.0
2018-Aug-05 09:00N 46°03' W 073°07'0 0.0
2018-Aug-05 08:30N 46°03' W 073°07'0 0.0
2018-Aug-05 08:00N 46°03' W 073°07'0 0.0
2018-Aug-05 07:30N 46°03' W 073°07'0 0.0
2018-Aug-05 06:56N 46°03' W 073°07'0 0.0
2018-Aug-05 06:30N 46°03' W 073°07'0 0.0
2018-Aug-05 06:00N 46°03' W 073°07'0 0.0
2018-Aug-05 05:30N 46°03' W 073°07'0 0.0
2018-Aug-05 05:00N 46°03' W 073°07'0 0.0
2018-Aug-05 04:30N 46°03' W 073°07'0 0.0
2018-Aug-05 04:00N 46°03' W 073°07'0 0.0
2018-Aug-05 03:30N 46°03' W 073°07'0 0.0
2018-Aug-05 03:00N 46°03' W 073°07'0 0.0
2018-Aug-05 02:30N 46°03' W 073°07'0 0.0
2018-Aug-05 02:00N 46°03' W 073°07'0 0.0
2018-Aug-05 01:30N 46°03' W 073°07'1 1.3
2018-Aug-05 00:59N 46°03' W 073°07'91 9.4
2018-Aug-04 15:15N 46°49' W 071°12'  
2018-Jul-28 15:53N 39°37' W 029°28'613.0
2018-Jul-28 15:27N 39°35' W 029°21'612.5
2018-Jul-28 15:00N 39°33' W 029°14'612.2
2018-Jul-28 14:30N 39°31' W 029°06'612.2
2018-Jul-28 14:00N 39°30' W 028°58'612.2
2018-Jul-28 13:31N 39°28' W 028°51'612.1
2018-Jul-28 13:00N 39°26' W 028°43'611.8
2018-Jul-28 12:30N 39°25' W 028°36'611.7
2018-Jul-28 12:00N 39°23' W 028°29'611.9
2018-Jul-28 11:30N 39°21' W 028°21'611.9
2018-Jul-28 11:00N 39°20' W 028°14'612.1
2018-Jul-28 10:30N 39°18' W 028°06'612.0
2018-Jul-28 10:00N 39°16' W 027°59'611.9
2018-Jul-28 09:30N 39°14' W 027°52'612.5
2018-Jul-28 09:01N 39°13' W 027°44'612.6
2018-Jul-28 08:30N 39°11' W 027°36'612.2
2018-Jul-28 08:00N 39°09' W 027°29'912.4
2018-Jul-28 07:17N 39°06' W 027°18'6812.3
2018-Jul-28 01:45N 38°35' W 026°00'311.9
2018-Jul-28 01:29N 38°33' W 025°57'611.4
2018-Jul-28 01:00N 38°30' W 025°51'611.8
2018-Jul-28 00:30N 38°27' W 025°45'612.0
2018-Jul-28 00:00N 38°24' W 025°38'612.2
2018-Jul-27 23:31N 38°21' W 025°31'612.5
2018-Jul-27 23:00N 38°18' W 025°24'612.5
2018-Jul-27 22:30N 38°14' W 025°18'612.7
2018-Jul-27 22:00N 38°11' W 025°11'712.6
2018-Jul-27 21:29N 38°08' W 025°04'612.6
2018-Jul-27 21:00N 38°04' W 024°57'612.7
2018-Jul-27 20:30N 38°01' W 024°50'612.6
2018-Jul-27 20:00N 37°58' W 024°43'612.7
2018-Jul-27 19:30N 37°55' W 024°36'612.5
2018-Jul-27 19:00N 37°52' W 024°29'612.8
2018-Jul-27 18:30N 37°51' W 024°21'  

Dump ship's entire track history